Time;durP1;ratioP1;P1;durP2;ratioP2;P2;SDS_P1;SDS_P2;PMS_P1;PMS_P2;Temp;Humidity;BMP_temperature;BMP_pressure;BME280_temperature;BME280_humidity;BME280_pressure;Samples;Min_cycle;Max_cycle;Signal;HPM_P1;HPM_P2
2022/04/01 08:38:47;;;;;;;;;;;;;;;4.27;67.64;96072.19;12820175;23;19920;-77
2022/04/01 08:44:07;;;;;;;;;;;;;;;4.45;67.55;96066.41;12841175;23;19920;-76
2022/04/01 08:49:28;;;;;;;;;;;;;;;4.62;67.63;96074.38;12840452;23;19927;-77
2022/04/01 09:00:34;;;;;;;;;;;;;;;4.94;67.31;96080.50;12781350;23;19916;-79
2022/04/01 09:05:55;;;;;;;;;;;;;;;4.95;66.67;96085.44;12731901;23;19950;-81
2022/04/01 09:11:17;;;;;;;;;;;;;;;5.05;66.00;96088.09;12803112;23;19964;-81
2022/04/01 09:16:41;;;;;;;;;;;;;;;5.01;66.88;96082.31;12793336;23;19952;-83
2022/04/01 09:22:18;;;;;;;;;;;;;;;4.92;66.73;96094.19;12749297;23;19931;-78
2022/04/01 09:46:05;;;;;;;;;;;;;;;4.59;66.30;96105.97;12794631;23;19912;31
2022/04/01 09:51:30;;;;;;;;;;;;;;;4.61;66.03;96111.63;12620258;23;19928;-78
2022/04/01 09:57:00;;;;;;;;;;;;;;;4.64;66.10;96113.22;12619445;23;20232;-79
2022/04/01 10:02:23;;;;;;;;;;;;;;;4.74;66.38;96111.09;12603058;23;20384;-78
2022/04/01 10:07:44;;;;;;;;;;;;;;;4.72;66.37;96113.00;12619412;23;19932;-77
2022/04/01 10:13:05;;;;;;;;;;;;;;;4.65;65.33;96116.72;12618451;23;19931;-79
2022/04/01 10:24:40;;;;;;;;;;;;;;;4.82;65.10;96122.66;12764319;23;19920;-79
2022/04/01 10:30:01;;;;;;;;;;;;;;;4.85;64.82;96123.50;12759789;23;20000;-78
2022/04/01 10:35:23;;;;;;;;;;;;;;;4.79;64.82;96123.13;12801569;23;19921;-79
2022/04/01 10:40:49;;;;;;;;;;;;;;;4.81;64.70;96118.44;12780664;23;20213;-80
2022/04/01 10:46:11;;;;;;;;;;;;;;;4.78;64.51;96121.69;12782131;23;20283;-80
2022/04/01 10:51:38;;;;;;;;;;;;;;;4.92;64.46;96122.56;12780250;23;19970;-80
2022/04/01 10:57:06;;;;;;;;;;;;;;;5.14;65.27;96123.25;12761965;23;20024;-80
2022/04/01 11:02:27;;;;;;;;;;;;;;;5.20;64.64;96125.66;12736203;23;19921;-80
2022/04/01 11:08:05;;;;;;;;;;;;;;;5.18;63.42;96123.50;12720159;23;19920;-77
2022/04/01 11:13:29;;;;;;;;;;;;;;;5.14;63.71;96135.03;12739572;23;19947;-77
2022/04/01 11:19:09;;;;;;;;;;;;;;;5.12;63.34;96126.63;12738451;23;20275;-77
2022/04/01 11:24:29;;;;;;;;;;;;;;;5.24;63.44;96137.69;12730290;23;19927;-77
2022/04/01 11:30:12;;;;;;;;;;;;;;;5.37;63.10;96139.88;12740382;23;19971;-77
2022/04/01 11:35:39;;;;;;;;;;;;;;;5.31;62.34;96142.31;12717305;23;20264;-77
2022/04/01 11:47:07;;;;;;;;;;;;;;;5.35;62.52;96150.84;12798476;23;19904;-80
2022/04/01 11:52:38;;;;;;;;;;;;;;;5.43;62.36;96145.09;12766082;23;19951;-80
2022/04/01 11:57:59;;;;;;;;;;;;;;;5.58;61.63;96152.19;12781119;23;19920;-80
2022/04/01 12:03:21;;;;;;;;;;;;;;;5.56;62.11;96144.50;12760595;23;19972;-77
2022/04/01 12:08:44;;;;;;;;;;;;;;;5.55;61.02;96145.09;12780088;23;20076;-79
2022/04/01 12:14:05;;;;;;;;;;;;;;;5.59;61.22;96143.28;12780298;23;19920;-79
2022/04/01 12:19:26;;;;;;;;;;;;;;;5.39;60.40;96151.06;12800792;23;19975;-78
2022/04/01 12:24:47;;;;;;;;;;;;;;;5.34;60.29;96157.69;12780483;23;20312;-78
2022/04/01 12:30:08;;;;;;;;;;;;;;;5.26;60.16;96168.25;12760554;23;20046;-78
2022/04/01 12:35:28;;;;;;;;;;;;;;;5.21;61.09;96161.03;12779788;23;19975;-77
2022/04/01 12:40:50;;;;;;;;;;;;;;;5.11;60.39;96165.91;12800473;23;19971;-78
2022/04/01 12:46:10;;;;;;;;;;;;;;;5.04;60.07;96173.13;12801965;23;19924;-78
2022/04/01 12:51:35;;;;;;;;;;;;;;;5.06;60.21;96180.81;12800422;23;19927;-78
2022/04/01 12:56:56;;;;;;;;;;;;;;;5.09;59.91;96171.31;12764412;23;19920;-78
2022/04/01 13:02:21;;;;;;;;;;;;;;;5.14;59.60;96173.75;12804012;23;19921;-79
2022/04/01 13:07:41;;;;;;;;;;;;;;;5.25;59.42;96177.88;12722028;23;19920;-78
2022/04/01 13:13:02;;;;;;;;;;;;;;;5.22;59.56;96179.09;12701560;23;20229;-79
2022/04/01 13:18:30;;;;;;;;;;;;;;;5.14;58.62;96184.09;12740739;23;19971;-79
2022/04/01 13:23:51;;;;;;;;;;;;;;;5.12;58.50;96187.47;12742081;23;19920;-78
2022/04/01 13:29:11;;;;;;;;;;;;;;;5.11;58.92;96185.28;12721135;23;19928;-78
2022/04/01 13:34:32;;;;;;;;;;;;;;;5.12;58.79;96186.75;12786718;23;20280;-79
2022/04/01 13:39:53;;;;;;;;;;;;;;;5.14;58.08;96186.88;12719626;23;19979;-80
2022/04/01 13:45:14;;;;;;;;;;;;;;;5.15;57.28;96199.38;12721196;23;19921;-81
2022/04/01 13:50:35;;;;;;;;;;;;;;;5.10;57.84;96201.16;12719548;23;19920;-80
2022/04/01 13:55:55;;;;;;;;;;;;;;;5.03;57.61;96201.38;12700684;23;19924;-78
2022/04/01 14:01:16;;;;;;;;;;;;;;;4.86;57.30;96205.88;12719455;23;19928;-79
2022/04/01 14:06:36;;;;;;;;;;;;;;;4.77;57.71;96212.19;12720295;23;19920;-78
2022/04/01 14:17:58;;;;;;;;;;;;;;;4.77;57.11;96217.00;12801236;23;19916;-85
2022/04/01 14:35:30;;;;;;;;;;;;;;;4.57;58.27;96228.16;12818461;23;20186;-85
2022/04/01 14:46:53;;;;;;;;;;;;;;;4.38;58.17;96247.63;12827785;23;19926;-81
2022/04/01 14:52:22;;;;;;;;;;;;;;;4.20;57.90;96243.63;12786991;23;19947;-76
2022/04/01 14:57:45;;;;;;;;;;;;;;;4.14;57.37;96243.94;12780503;23;19920;-79
2022/04/01 15:03:05;;;;;;;;;;;;;;;4.04;57.40;96254.28;12779762;23;19920;-79
2022/04/01 15:08:26;;;;;;;;;;;;;;;4.01;58.09;96272.75;12739512;23;19927;-78
2022/04/01 15:13:46;;;;;;;;;;;;;;;3.93;57.73;96282.53;12696831;23;19928;-79
2022/04/01 15:19:07;;;;;;;;;;;;;;;3.79;57.79;96273.28;12719269;23;19931;-81
2022/04/01 15:24:34;;;;;;;;;;;;;;;3.67;57.71;96273.88;12761334;23;19912;31
2022/04/01 15:36:11;;;;;;;;;;;;;;;3.52;57.80;96293.50;12800177;23;20283;-79
2022/04/01 15:41:32;;;;;;;;;;;;;;;3.43;58.89;96299.75;12759117;23;19920;-77
2022/04/01 15:46:52;;;;;;;;;;;;;;;3.33;59.11;96312.81;12801616;23;19936;-82
2022/04/01 15:52:13;;;;;;;;;;;;;;;3.39;58.94;96313.25;12802969;23;19943;-77
2022/04/01 15:57:34;;;;;;;;;;;;;;;3.50;59.70;96320.94;12760517;23;19924;-78
2022/04/01 16:03:11;;;;;;;;;;;;;;;3.51;60.31;96324.44;12806211;23;19911;-80
2022/04/01 16:08:33;;;;;;;;;;;;;;;3.40;60.09;96336.78;12775649;23;19923;-80
2022/04/01 16:13:56;;;;;;;;;;;;;;;3.33;60.08;96340.41;12754399;23;19948;-82
2022/04/01 16:19:17;;;;;;;;;;;;;;;3.27;60.48;96337.19;12763394;23;19952;-81
2022/04/01 16:24:38;;;;;;;;;;;;;;;3.17;60.38;96350.97;12763017;23;19973;-82
2022/04/01 16:29:59;;;;;;;;;;;;;;;3.10;61.69;96360.84;12737582;23;19921;-80
2022/04/01 16:35:22;;;;;;;;;;;;;;;3.05;61.17;96366.63;12718339;23;19995;-80
2022/04/01 16:40:42;;;;;;;;;;;;;;;3.01;61.30;96375.34;12764391;23;19953;-80
2022/04/01 16:46:03;;;;;;;;;;;;;;;3.05;62.47;96383.16;12754766;23;19920;-81
2022/04/01 16:51:24;;;;;;;;;;;;;;;3.13;61.96;96384.50;12750314;23;19924;-80
2022/04/01 16:56:45;;;;;;;;;;;;;;;3.13;60.90;96390.00;12755617;23;20240;-78
2022/04/01 17:02:07;;;;;;;;;;;;;;;3.07;61.40;96386.06;12744132;23;19925;-78
2022/04/01 17:13:06;;;;;;;;;;;;;;;2.94;61.65;96394.75;12774230;23;19920;-79
2022/04/01 17:18:28;;;;;;;;;;;;;;;2.85;61.29;96398.94;12701985;23;19975;-77
2022/04/01 17:23:49;;;;;;;;;;;;;;;2.87;61.83;96423.88;12729874;23;19920;-82
2022/04/01 17:29:12;;;;;;;;;;;;;;;2.94;61.72;96419.56;12727093;23;19925;-78
2022/04/01 17:34:36;;;;;;;;;;;;;;;2.98;61.68;96426.09;12727608;23;19988;-78
2022/04/01 17:39:57;;;;;;;;;;;;;;;2.96;61.28;96434.22;12720930;23;19921;-76
2022/04/01 17:45:18;;;;;;;;;;;;;;;2.95;61.52;96440.31;12699616;23;19924;-78
2022/04/01 17:50:39;;;;;;;;;;;;;;;2.90;61.21;96452.34;12720960;23;19921;-77
2022/04/01 17:56:02;;;;;;;;;;;;;;;3.02;61.39;96445.69;12780283;23;19927;-82
2022/04/01 18:01:23;;;;;;;;;;;;;;;2.97;60.97;96454.22;12826204;23;19924;-80
2022/04/01 18:06:44;;;;;;;;;;;;;;;3.02;61.19;96467.75;12720825;23;20375;-76
2022/04/01 18:12:06;;;;;;;;;;;;;;;2.96;60.86;96472.81;12740097;23;19927;-77
2022/04/01 18:17:27;;;;;;;;;;;;;;;2.96;60.78;96477.59;12720227;23;19920;-77
2022/04/01 18:22:48;;;;;;;;;;;;;;;2.95;60.78;96489.91;12768377;23;19996;-76
2022/04/01 18:28:11;;;;;;;;;;;;;;;2.90;60.11;96488.91;12739721;23;20312;-76
2022/04/01 18:33:34;;;;;;;;;;;;;;;2.81;60.29;96489.56;12719228;23;19921;-76
2022/04/01 18:38:55;;;;;;;;;;;;;;;2.72;59.29;96495.75;12739207;23;19921;-81
2022/04/01 18:44:16;;;;;;;;;;;;;;;2.69;58.57;96496.88;12743254;23;19921;-79
2022/04/01 18:49:37;;;;;;;;;;;;;;;2.65;59.50;96499.34;12738934;23;19929;-76
2022/04/01 18:54:57;;;;;;;;;;;;;;;2.69;59.56;96491.38;12729359;23;19928;-80
2022/04/01 19:00:20;;;;;;;;;;;;;;;2.73;59.79;96505.47;12736090;23;19921;-78
2022/04/01 19:05:43;;;;;;;;;;;;;;;2.68;59.52;96506.47;12729427;23;19920;-76
2022/04/01 19:11:08;;;;;;;;;;;;;;;2.71;59.30;96524.63;12760055;23;19920;-77
2022/04/01 19:16:32;;;;;;;;;;;;;;;2.69;58.85;96525.16;12718041;23;20332;-77
2022/04/01 19:21:56;;;;;;;;;;;;;;;2.70;58.34;96528.66;12722274;23;19904;-82
2022/04/01 19:27:18;;;;;;;;;;;;;;;2.80;59.14;96530.19;12738905;23;19967;-76
2022/04/01 19:32:39;;;;;;;;;;;;;;;2.88;58.80;96552.13;12737738;23;19920;-75
2022/04/01 19:38:00;;;;;;;;;;;;;;;2.96;58.31;96563.03;12738642;23;19931;-76
2022/04/01 19:43:21;;;;;;;;;;;;;;;2.95;57.99;96561.59;12738943;23;19971;-76
2022/04/01 19:48:41;;;;;;;;;;;;;;;2.94;58.45;96549.84;12718175;23;19921;-76
2022/04/01 19:54:02;;;;;;;;;;;;;;;3.01;58.48;96553.81;12738262;23;20343;-75
2022/04/01 19:59:23;;;;;;;;;;;;;;;3.07;58.09;96557.72;12711423;23;19920;-76
2022/04/01 20:04:45;;;;;;;;;;;;;;;3.12;58.42;96551.25;12735717;23;19996;-79
2022/04/01 20:10:06;;;;;;;;;;;;;;;3.16;56.87;96548.78;12721998;23;20247;-79
2022/04/01 20:15:26;;;;;;;;;;;;;;;3.11;56.81;96560.81;12742594;23;19940;-77
2022/04/01 20:20:47;;;;;;;;;;;;;;;3.13;56.35;96563.72;12739533;23;20314;-81
2022/04/01 20:26:17;;;;;;;;;;;;;;;3.16;56.99;96570.13;12695230;23;20324;-80
2022/04/01 20:31:39;;;;;;;;;;;;;;;3.15;57.19;96563.88;12716634;23;20248;-77
2022/04/01 20:37:00;;;;;;;;;;;;;;;3.20;56.20;96573.19;12715843;23;19924;-78
2022/04/01 20:42:21;;;;;;;;;;;;;;;3.23;56.80;96576.84;12757801;23;19925;-77
2022/04/01 20:47:42;;;;;;;;;;;;;;;3.17;56.63;96566.78;12719238;23;20389;-77
2022/04/01 20:53:03;;;;;;;;;;;;;;;3.06;55.72;96561.06;12734743;23;19927;-77
2022/04/01 20:58:24;;;;;;;;;;;;;;;3.03;54.83;96551.19;12734356;23;19975;-77
2022/04/01 21:03:44;;;;;;;;;;;;;;;3.00;54.69;96558.59;12736672;23;19943;-76
2022/04/01 21:09:05;;;;;;;;;;;;;;;2.93;54.77;96577.97;12735796;23;19921;-80
2022/04/01 21:14:26;;;;;;;;;;;;;;;2.89;53.35;96575.63;12739691;23;19967;-77
2022/04/01 21:19:47;;;;;;;;;;;;;;;2.90;54.38;96573.63;12718465;23;19921;-77
2022/04/01 21:25:07;;;;;;;;;;;;;;;2.77;53.48;96571.94;12762141;23;19920;-77
2022/04/01 21:30:28;;;;;;;;;;;;;;;2.71;54.15;96574.22;12740229;23;19920;-77
2022/04/01 21:35:49;;;;;;;;;;;;;;;2.58;54.97;96581.50;12760967;23;19972;-77
2022/04/01 21:41:09;;;;;;;;;;;;;;;2.54;55.33;96581.22;12741062;23;20256;-77
2022/04/01 21:46:30;;;;;;;;;;;;;;;2.43;55.38;96584.47;12740668;23;19921;-77
2022/04/01 21:51:51;;;;;;;;;;;;;;;2.38;55.79;96573.69;12699653;23;19947;-77
2022/04/01 21:57:12;;;;;;;;;;;;;;;2.40;55.95;96582.09;12760658;23;19927;-77
2022/04/01 22:02:34;;;;;;;;;;;;;;;2.34;56.23;96568.59;12701408;23;19979;-77
2022/04/01 22:07:55;;;;;;;;;;;;;;;2.34;56.38;96567.84;12701101;23;19921;-80
2022/04/01 22:13:15;;;;;;;;;;;;;;;2.48;56.70;96577.22;12760279;23;19920;-79
2022/04/01 22:18:38;;;;;;;;;;;;;;;2.64;56.22;96577.78;12761080;23;19924;-79
2022/04/01 22:23:59;;;;;;;;;;;;;;;2.67;56.28;96571.13;12698936;23;19947;-77
2022/04/01 22:29:20;;;;;;;;;;;;;;;2.76;56.21;96578.75;12718848;23;19927;-77
2022/04/01 22:34:40;;;;;;;;;;;;;;;2.85;55.79;96575.31;12739417;23;19925;-77
2022/04/01 22:40:01;;;;;;;;;;;;;;;2.93;55.77;96580.75;12719605;23;20349;-77
2022/04/01 22:45:24;;;;;;;;;;;;;;;2.96;55.53;96587.84;12739878;23;19921;-77
2022/04/01 22:50:45;;;;;;;;;;;;;;;2.99;55.29;96592.22;12719080;23;19927;-77
2022/04/01 22:56:06;;;;;;;;;;;;;;;3.01;55.19;96598.63;12739088;23;19975;-77
2022/04/01 23:01:27;;;;;;;;;;;;;;;2.99;54.84;96592.97;12724723;23;19921;-77
2022/04/01 23:06:47;;;;;;;;;;;;;;;3.01;54.44;96592.41;12725418;23;19920;-77
2022/04/01 23:12:11;;;;;;;;;;;;;;;2.97;53.79;96592.06;12759886;23;19921;-77
2022/04/01 23:17:32;;;;;;;;;;;;;;;2.90;54.53;96593.63;12739237;23;20256;-77
2022/04/01 23:22:54;;;;;;;;;;;;;;;2.90;53.31;96595.66;12738344;23;19920;-77
2022/04/01 23:28:14;;;;;;;;;;;;;;;2.84;53.00;96604.19;12738970;23;19920;-77
2022/04/01 23:33:35;;;;;;;;;;;;;;;2.84;52.84;96601.44;12758720;23;19921;-77
2022/04/01 23:38:56;;;;;;;;;;;;;;;2.82;52.76;96599.25;12718202;23;19932;-77
2022/04/01 23:44:19;;;;;;;;;;;;;;;2.79;53.22;96596.88;12738852;23;19927;-77
2022/04/01 23:49:40;;;;;;;;;;;;;;;2.83;53.34;96599.97;12697928;23;20379;-77
2022/04/01 23:55:02;;;;;;;;;;;;;;;2.85;52.68;96597.38;12738286;23;19972;-77
